Time;durP1;ratioP1;P1;durP2;ratioP2;P2;SDS_P1;SDS_P2;PMS_P1;PMS_P2;Temp;Humidity;BMP_temperature;BMP_pressure;BME280_temperature;BME280_humidity;BME280_pressure;Samples;Min_cycle;Max_cycle;Signal;HPM_P1;HPM_P2
2023/04/19 00:01:58;;;;;;;17.00;9.43;;;;;;;7.73;100.00;94247.03;5009814;28;20041;-60
2023/04/19 00:04:25;;;;;;;15.88;9.32;;;;;;;7.70;100.00;94242.31;5010518;28;20398;-60
2023/04/19 00:06:52;;;;;;;16.30;9.50;;;;;;;7.47;100.00;94247.38;5009932;28;20123;-60
2023/04/19 00:09:19;;;;;;;17.27;9.80;;;;;;;7.54;100.00;94242.69;5008388;28;20505;-61
2023/04/19 00:11:46;;;;;;;15.98;9.55;;;;;;;7.58;100.00;94243.47;5008548;28;20046;-61
2023/04/19 00:14:12;;;;;;;15.88;9.32;;;;;;;7.45;100.00;94247.75;5010358;28;20046;-61
2023/04/19 00:16:40;;;;;;;15.25;9.43;;;;;;;7.55;100.00;94240.75;5009561;28;20046;-60
2023/04/19 00:19:07;;;;;;;14.60;8.70;;;;;;;7.61;100.00;94236.47;5010315;28;20430;-60
2023/04/19 00:21:34;;;;;;;15.48;9.10;;;;;;;7.48;100.00;94240.75;5009548;28;20419;-60
2023/04/19 00:24:01;;;;;;;17.15;9.73;;;;;;;7.53;100.00;94226.72;5010108;28;20111;-60
2023/04/19 00:26:28;;;;;;;15.98;9.02;;;;;;;7.53;100.00;94226.72;5009630;28;20099;-63
2023/04/19 00:28:55;;;;;;;16.35;9.38;;;;;;;7.59;100.00;94234.13;5010047;28;20490;-62
2023/04/19 00:31:21;;;;;;;16.87;9.37;;;;;;;7.49;100.00;94218.50;4988173;28;20038;-60
2023/04/19 00:33:48;;;;;;;17.75;10.60;;;;;;;7.26;100.00;94223.53;4990549;28;20103;-60
2023/04/19 00:36:15;;;;;;;16.10;9.10;;;;;;;7.34;100.00;94219.66;5002707;28;20046;-61
2023/04/19 00:38:42;;;;;;;16.00;8.90;;;;;;;7.54;100.00;94226.31;5008822;28;20053;-61
2023/04/19 00:41:08;;;;;;;17.80;10.07;;;;;;;7.48;100.00;94227.84;5009515;28;20155;-60
2023/04/19 00:43:35;;;;;;;16.80;9.47;;;;;;;7.58;100.00;94224.34;5009242;28;20096;-60
2023/04/19 00:46:02;;;;;;;16.95;9.98;;;;;;;7.57;100.00;94214.63;5009626;28;20072;-61
2023/04/19 00:48:29;;;;;;;18.38;10.35;;;;;;;7.54;100.00;94212.66;5009004;28;20050;-60
2023/04/19 00:50:56;;;;;;;16.65;9.38;;;;;;;7.63;100.00;94216.97;5009676;28;20430;-61
2023/04/19 00:53:23;;;;;;;15.48;9.25;;;;;;;7.68;100.00;94211.88;5008010;28;20049;-61
2023/04/19 00:55:50;;;;;;;17.40;9.70;;;;;;;7.66;100.00;94206.03;5009326;28;20042;-61
2023/04/19 00:58:17;;;;;;;16.27;9.20;;;;;;;7.63;100.00;94204.09;5009586;28;20050;-60
2023/04/19 01:00:43;;;;;;;15.40;9.52;;;;;;;7.48;100.00;94211.47;5008716;28;20554;-61
2023/04/19 01:03:11;;;;;;;18.23;10.18;;;;;;;7.34;100.00;94206.78;5009331;28;20462;-61
2023/04/19 01:05:38;;;;;;;15.88;9.27;;;;;;;7.39;100.00;94206.41;5008832;28;20038;-63
2023/04/19 01:08:05;;;;;;;15.80;9.20;;;;;;;7.52;100.00;94195.09;5009259;28;20052;-61
2023/04/19 01:10:32;;;;;;;16.80;9.60;;;;;;;7.55;100.00;94199.81;5008893;28;20042;-62
2023/04/19 01:12:59;;;;;;;19.40;9.77;;;;;;;7.53;100.00;94205.63;5009472;28;20038;-62
2023/04/19 01:15:25;;;;;;;15.63;9.00;;;;;;;7.52;100.00;94197.84;5008958;28;20045;-61
2023/04/19 01:17:52;;;;;;;17.42;9.52;;;;;;;7.56;100.00;94195.88;5008475;28;20388;-60
2023/04/19 01:20:19;;;;;;;21.67;12.33;;;;;;;7.63;100.00;94198.63;5008524;28;20050;-63
2023/04/19 01:22:46;;;;;;;21.45;12.15;;;;;;;7.74;100.00;94193.16;5008246;28;20487;-62
2023/04/19 01:25:12;;;;;;;16.02;9.50;;;;;;;7.73;100.00;94197.84;5008972;28;20045;-63
2023/04/19 01:27:39;;;;;;;16.35;9.23;;;;;;;7.60;100.00;94197.44;5008300;28;20041;-60
2023/04/19 01:30:06;;;;;;;16.27;10.00;;;;;;;7.48;100.00;94192.34;5008439;28;20131;-61
2023/04/19 01:32:33;;;;;;;16.83;9.27;;;;;;;7.59;100.00;94189.66;4993600;28;20058;-62
2023/04/19 01:35:00;;;;;;;16.25;9.32;;;;;;;7.39;100.00;94184.56;4988876;28;20052;-61
2023/04/19 01:37:26;;;;;;;16.95;8.90;;;;;;;7.31;100.00;94182.22;4991136;28;20037;-62
2023/04/19 01:39:53;;;;;;;16.00;9.20;;;;;;;7.38;100.00;94185.75;5007779;28;20607;-60
2023/04/19 01:42:20;;;;;;;15.18;8.77;;;;;;;7.51;100.00;94185.38;5008096;28;20052;-61
2023/04/19 01:44:46;;;;;;;14.50;8.63;;;;;;;7.58;100.00;94183.38;5008187;28;20053;-61
2023/04/19 01:47:13;;;;;;;14.80;8.73;;;;;;;7.56;100.00;94176.75;4993827;28;20053;-63
2023/04/19 01:49:40;;;;;;;15.65;9.60;;;;;;;7.41;100.00;94176.00;5008354;28;20042;-61
2023/04/19 01:52:06;;;;;;;16.45;10.75;;;;;;;7.06;100.00;94169.28;5008669;28;20482;-62
2023/04/19 01:54:33;;;;;;;17.70;10.25;;;;;;;7.14;100.00;94173.63;5007977;28;20042;-60
2023/04/19 01:57:00;;;;;;;17.47;9.37;;;;;;;7.43;100.00;94173.66;5008310;28;20483;-60
2023/04/19 01:59:26;;;;;;;17.23;9.48;;;;;;;7.22;100.00;94165.44;5008529;28;20577;-61
2023/04/19 02:01:53;;;;;;;16.23;9.10;;;;;;;7.43;100.00;94159.22;5007753;28;20049;-62
2023/04/19 02:04:23;;;;;;;17.02;9.30;;;;;;;7.44;100.00;94168.97;5008640;28;20390;-62
2023/04/19 02:06:49;;;;;;;14.82;8.70;;;;;;;7.30;100.00;94170.50;5006783;28;20088;-61
2023/04/19 02:09:16;;;;;;;14.07;8.53;;;;;;;7.52;100.00;94171.28;5008100;28;20046;-60
2023/04/19 02:11:43;;;;;;;15.35;8.55;;;;;;;7.51;100.00;94166.25;5007762;28;20445;-62
2023/04/19 02:14:09;;;;;;;13.75;8.43;;;;;;;7.33;100.00;94163.50;5008346;28;20485;-61
2023/04/19 02:16:36;;;;;;;13.93;8.50;;;;;;;7.36;100.00;94154.50;5007586;28;20050;-61
2023/04/19 02:19:03;;;;;;;13.38;8.40;;;;;;;7.48;100.00;94162.31;5007958;28;20075;-60
2023/04/19 02:21:30;;;;;;;13.80;8.43;;;;;;;7.45;100.00;94162.34;5007991;28;20048;-61
2023/04/19 02:23:57;;;;;;;14.18;8.43;;;;;;;7.35;100.00;94158.44;5008153;28;20510;-61
2023/04/19 02:26:24;;;;;;;16.30;9.43;;;;;;;7.18;100.00;94159.94;5008069;28;20068;-60
2023/04/19 02:28:51;;;;;;;14.73;8.48;;;;;;;7.36;100.00;94151.78;5007800;28;20053;-61
2023/04/19 02:31:18;;;;;;;14.80;8.48;;;;;;;7.34;100.00;94148.66;5003388;28;20047;-62
2023/04/19 02:33:45;;;;;;;15.10;9.17;;;;;;;7.28;100.00;94156.44;4991384;28;20058;-62
2023/04/19 02:36:12;;;;;;;14.88;8.73;;;;;;;7.43;100.00;94156.50;5003570;28;20049;-61
2023/04/19 02:38:39;;;;;;;15.10;9.27;;;;;;;7.23;100.00;94153.34;5011325;28;20522;-61
2023/04/19 02:41:05;;;;;;;14.45;8.48;;;;;;;7.39;100.00;94151.03;5011269;28;20050;-61
2023/04/19 02:43:32;;;;;;;14.65;8.30;;;;;;;7.48;100.00;94150.63;5011445;28;20049;-61
2023/04/19 02:46:00;;;;;;;15.20;8.73;;;;;;;7.14;100.00;94157.25;5012004;28;20038;-61
2023/04/19 02:48:27;;;;;;;13.73;7.78;;;;;;;7.26;100.00;94147.88;5011851;28;20049;-63
2023/04/19 02:50:54;;;;;;;12.18;7.40;;;;;;;7.33;100.00;94144.38;5011156;28;20188;-61
2023/04/19 02:53:21;;;;;;;12.68;7.47;;;;;;;7.30;100.00;94145.16;5011646;28;20057;-60
2023/04/19 02:55:48;;;;;;;13.85;8.68;;;;;;;7.08;100.00;94149.81;5009725;28;20046;-61
2023/04/19 02:58:14;;;;;;;13.17;8.00;;;;;;;7.24;100.00;94143.97;5011765;28;20559;-61
2023/04/19 03:00:41;;;;;;;13.02;8.18;;;;;;;7.37;100.00;94148.66;5010857;28;20480;-61
2023/04/19 03:03:08;;;;;;;14.10;8.27;;;;;;;7.35;100.00;94148.28;5011627;28;20145;-62
2023/04/19 03:05:35;;;;;;;14.52;7.95;;;;;;;7.27;100.00;94149.44;5010872;28;20045;-61
2023/04/19 03:08:02;;;;;;;12.35;7.82;;;;;;;7.12;100.00;94142.41;5011247;28;20113;-60
2023/04/19 03:10:28;;;;;;;12.37;7.43;;;;;;;7.20;100.00;94146.69;5011013;28;20068;-61
2023/04/19 03:12:55;;;;;;;14.75;8.07;;;;;;;7.10;100.00;94144.72;4998627;28;20103;-62
2023/04/19 03:15:21;;;;;;;12.18;7.50;;;;;;;7.20;100.00;94147.50;5011033;28;20046;-62
2023/04/19 03:17:48;;;;;;;12.90;7.55;;;;;;;7.13;100.00;94139.28;5009696;28;20097;-61
2023/04/19 03:20:15;;;;;;;14.77;7.95;;;;;;;7.25;100.00;94140.09;5011258;28;20162;-60
2023/04/19 03:22:42;;;;;;;12.40;7.30;;;;;;;7.26;100.00;94141.63;5010366;28;20556;-61
2023/04/19 03:25:11;;;;;;;14.75;8.05;;;;;;;7.14;100.00;94149.06;5011167;28;20057;-61
2023/04/19 03:27:38;;;;;;;15.93;8.10;;;;;;;7.31;100.00;94146.72;5010446;28;20107;-61
2023/04/19 03:30:05;;;;;;;12.73;7.85;;;;;;;7.37;100.00;94143.22;5011192;28;20054;-61
2023/04/19 03:32:32;;;;;;;13.52;8.38;;;;;;;7.31;100.00;94139.31;5010221;28;20053;-63
2023/04/19 03:34:59;;;;;;;14.60;8.60;;;;;;;7.23;100.00;94142.44;5010896;28;20041;-62
2023/04/19 03:37:25;;;;;;;14.02;8.38;;;;;;;7.33;100.00;94136.97;5010972;28;20046;-60
2023/04/19 03:39:52;;;;;;;12.90;7.93;;;;;;;7.26;100.00;94133.44;4991578;28;20052;-60
2023/04/19 03:42:19;;;;;;;15.18;8.82;;;;;;;7.19;100.00;94131.50;5009108;28;20034;-61
2023/04/19 03:44:46;;;;;;;15.15;8.65;;;;;;;7.27;100.00;94133.06;5009261;28;20046;-61
2023/04/19 03:47:12;;;;;;;14.00;8.27;;;;;;;7.08;100.00;94136.94;5010750;28;20100;-65
2023/04/19 03:49:39;;;;;;;14.63;8.60;;;;;;;7.19;100.00;94137.72;5010216;28;20116;-61
2023/04/19 03:52:06;;;;;;;14.38;7.85;;;;;;;6.99;100.00;94126.41;5010774;28;20045;-60
2023/04/19 03:54:32;;;;;;;15.30;8.90;;;;;;;6.89;100.00;94129.13;5010024;28;20128;-61
2023/04/19 03:56:59;;;;;;;16.48;8.88;;;;;;;6.76;100.00;94125.94;5010310;28;20052;-61
2023/04/19 03:59:26;;;;;;;16.37;8.70;;;;;;;6.84;100.00;94122.09;5010471;28;20445;-62
2023/04/19 04:01:52;;;;;;;15.05;8.88;;;;;;;6.95;100.00;94127.56;5008486;28;20774;-61
2023/04/19 04:04:19;;;;;;;16.50;9.00;;;;;;;7.05;100.00;94121.34;5010555;28;20045;-60
2023/04/19 04:06:47;;;;;;;15.18;8.68;;;;;;;7.10;100.00;94123.72;5009418;28;20394;-60
2023/04/19 04:09:13;;;;;;;15.45;9.30;;;;;;;7.26;100.00;94126.03;5010047;28;20625;-61
2023/04/19 04:11:40;;;;;;;16.00;9.03;;;;;;;7.32;100.00;94123.69;5009716;28;20038;-61
2023/04/19 04:14:07;;;;;;;16.13;9.30;;;;;;;7.35;100.00;94120.97;5010231;28;20060;-59
2023/04/19 04:16:33;;;;;;;15.18;8.93;;;;;;;7.33;100.00;94125.28;5008238;28;20426;-59
2023/04/19 04:19:00;;;;;;;15.90;9.38;;;;;;;7.38;100.00;94119.41;5006282;28;20046;-60
2023/04/19 04:21:27;;;;;;;15.93;8.88;;;;;;;7.37;100.00;94132.28;5005263;28;20592;-60
2023/04/19 04:23:53;;;;;;;14.27;8.60;;;;;;;7.22;100.00;94130.72;5002046;28;20046;-62
2023/04/19 04:26:20;;;;;;;16.38;9.80;;;;;;;7.04;100.00;94124.47;5009732;28;20038;-60
2023/04/19 04:28:47;;;;;;;14.65;8.20;;;;;;;7.08;100.00;94131.47;5009397;28;20076;-61
2023/04/19 04:31:16;;;;;;;15.45;8.85;;;;;;;7.00;100.00;94130.69;5009397;28;20465;-59
2023/04/19 04:33:44;;;;;;;16.15;9.02;;;;;;;7.12;100.00;94132.28;5009106;28;20056;-60
2023/04/19 04:36:11;;;;;;;17.77;9.77;;;;;;;7.01;100.00;94131.47;5008472;28;20041;-60
2023/04/19 04:38:38;;;;;;;16.73;9.55;;;;;;;7.16;100.00;94135.00;5009094;28;20042;-59
2023/04/19 04:41:05;;;;;;;13.90;8.80;;;;;;;7.20;100.00;94136.59;5009224;28;20046;-60
2023/04/19 04:43:33;;;;;;;16.45;9.23;;;;;;;7.24;100.00;94135.78;5007835;28;20802;-61
2023/04/19 04:46:00;;;;;;;15.68;9.05;;;;;;;7.30;100.00;94135.00;5009068;28;20041;-58
2023/04/19 04:48:27;;;;;;;15.87;9.33;;;;;;;7.24;100.00;94136.56;5009497;28;20052;-58
2023/04/19 04:50:54;;;;;;;15.80;10.00;;;;;;;6.83;100.00;94138.84;5008463;28;20189;-58
2023/04/19 04:53:20;;;;;;;15.20;8.95;;;;;;;7.07;100.00;94142.78;5009115;28;20697;-58
2023/04/19 04:55:47;;;;;;;14.43;8.80;;;;;;;7.11;100.00;94130.72;5008609;28;20038;-59
2023/04/19 04:58:14;;;;;;;15.15;9.50;;;;;;;6.93;100.00;94146.28;5008988;28;20042;-58
2023/04/19 05:00:41;;;;;;;14.43;8.50;;;;;;;7.18;100.00;94138.91;5008494;28;20311;-59
2023/04/19 05:03:07;;;;;;;16.23;9.50;;;;;;;7.14;100.00;94138.13;5008981;28;20060;-60
2023/04/19 05:05:34;;;;;;;14.70;8.70;;;;;;;6.77;100.00;94136.47;4995348;28;20072;-60
2023/04/19 05:08:01;;;;;;;14.88;8.85;;;;;;;6.91;100.00;94138.47;5001345;28;20410;-60
2023/04/19 05:10:28;;;;;;;15.57;9.57;;;;;;;6.97;100.00;94145.09;5001265;28;20049;-61
2023/04/19 05:12:54;;;;;;;17.63;9.17;;;;;;;6.74;100.00;94134.53;5000708;28;20056;-60
2023/04/19 05:15:21;;;;;;;14.55;8.70;;;;;;;6.70;100.00;94139.22;4998307;28;20468;-61
2023/04/19 05:17:48;;;;;;;15.27;8.88;;;;;;;7.02;100.00;94145.91;4994396;28;20712;-60
2023/04/19 05:20:15;;;;;;;16.92;9.63;;;;;;;7.18;100.00;94149.03;4995833;28;20371;-60
2023/04/19 05:22:42;;;;;;;14.93;9.05;;;;;;;6.92;100.00;94142.78;4997392;28;20041;-61
2023/04/19 05:25:10;;;;;;;14.67;8.87;;;;;;;7.10;100.00;94142.00;5002630;28;20574;-62
2023/04/19 05:27:36;;;;;;;16.30;9.55;;;;;;;7.15;100.00;94147.09;5001584;28;20046;-62
2023/04/19 05:30:05;;;;;;;17.70;10.02;;;;;;;7.23;100.00;94145.94;4999526;28;20058;-62
2023/04/19 05:32:32;;;;;;;16.23;9.27;;;;;;;7.21;100.00;94145.53;5002677;28;20654;-60
2023/04/19 05:34:59;;;;;;;17.80;10.10;;;;;;;7.21;100.00;94148.28;4999625;28;20048;-62
2023/04/19 05:37:25;;;;;;;14.87;8.60;;;;;;;7.19;100.00;94148.66;5001096;28;20044;-61
2023/04/19 05:39:52;;;;;;;17.23;8.93;;;;;;;7.32;100.00;94151.00;4997763;28;20041;-61
2023/04/19 05:42:19;;;;;;;16.35;9.30;;;;;;;7.37;100.00;94143.22;5002987;28;20046;-63
2023/04/19 05:44:46;;;;;;;17.02;9.13;;;;;;;7.33;100.00;94142.44;4998683;28;20517;-61
2023/04/19 05:47:12;;;;;;;15.75;9.43;;;;;;;7.45;100.00;94145.97;5002555;28;20052;-61
2023/04/19 05:49:40;;;;;;;20.43;10.73;;;;;;;7.33;100.00;94141.66;4999406;28;20121;-61
2023/04/19 05:52:09;;;;;;;18.17;9.80;;;;;;;7.31;100.00;94149.47;5000016;28;20049;-60
2023/04/19 05:54:35;;;;;;;17.90;9.73;;;;;;;7.23;100.00;94150.63;5002171;28;20659;-60
2023/04/19 05:57:02;;;;;;;17.40;9.75;;;;;;;7.18;100.00;94149.03;5000345;28;20085;-61
2023/04/19 05:59:29;;;;;;;16.02;9.13;;;;;;;6.94;100.00;94147.81;5000501;28;20478;-62
2023/04/19 06:01:56;;;;;;;15.40;9.20;;;;;;;6.85;100.00;94145.47;4995462;28;20498;-63
2023/04/19 06:04:22;;;;;;;20.08;9.75;;;;;;;6.90;100.00;94155.22;4999210;28;20046;-63
2023/04/19 06:06:50;;;;;;;18.65;10.18;;;;;;;7.10;100.00;94151.00;4995731;28;20048;-62
2023/04/19 06:09:17;;;;;;;18.73;10.65;;;;;;;7.37;100.00;94153.38;5000764;28;20038;-63
2023/04/19 06:11:44;;;;;;;19.75;10.60;;;;;;;7.53;100.00;94148.28;5001473;28;20057;-60
2023/04/19 06:14:17;;;;;;;16.17;9.30;;;;;;;7.50;100.00;94154.53;5003796;28;20060;-62
2023/04/19 06:16:44;;;;;;;17.00;9.07;;;;;;;7.63;100.00;94154.16;4999974;28;20127;-62
2023/04/19 06:19:11;;;;;;;17.33;9.98;;;;;;;7.42;100.00;94150.22;5000417;28;20042;-65
2023/04/19 06:21:38;;;;;;;17.05;8.98;;;;;;;7.59;100.00;94154.16;4996448;28;21052;-61
2023/04/19 06:24:06;;;;;;;17.75;10.00;;;;;;;7.68;100.00;94156.47;5001785;28;20543;-64
2023/04/19 06:26:32;;;;;;;16.77;9.47;;;;;;;7.85;100.00;94155.69;4998054;28;20080;-62
2023/04/19 06:29:00;;;;;;;20.40;10.27;;;;;;;7.98;100.00;94153.31;4997031;28;20046;-62
2023/04/19 06:31:26;;;;;;;15.90;9.07;;;;;;;8.08;100.00;94157.22;5004242;28;20445;-62
2023/04/19 06:33:53;;;;;;;15.20;8.88;;;;;;;7.91;100.00;94165.06;5001234;28;20126;-67
2023/04/19 06:36:20;;;;;;;18.85;9.77;;;;;;;7.76;100.00;94161.53;5002225;28;20042;-65
2023/04/19 06:38:48;;;;;;;18.03;9.47;;;;;;;8.06;100.00;94163.06;5000492;28;20471;-63
2023/04/19 06:41:15;;;;;;;16.70;9.75;;;;;;;8.19;100.00;94155.25;4999732;28;20511;-60
2023/04/19 06:43:43;;;;;;;15.45;9.48;;;;;;;8.17;100.00;94155.63;5002951;28;20041;-59
2023/04/19 06:46:12;;;;;;;16.15;9.18;;;;;;;7.87;100.00;94160.75;5003483;28;20086;-60
2023/04/19 06:48:39;;;;;;;16.58;10.25;;;;;;;8.00;100.00;94159.94;5000924;28;20114;-61
2023/04/19 06:51:06;;;;;;;16.67;9.47;;;;;;;8.01;100.00;94155.28;4999884;28;20046;-60
2023/04/19 06:53:34;;;;;;;16.73;9.85;;;;;;;8.32;100.00;94161.84;4997977;28;20056;-59
2023/04/19 06:56:05;;;;;;;16.77;9.32;;;;;;;8.72;100.00;94161.75;4999058;28;20047;-59
2023/04/19 06:58:32;;;;;;;17.52;9.80;;;;;;;8.78;100.00;94169.13;4994729;28;20044;-62
2023/04/19 07:01:03;;;;;;;19.15;9.68;;;;;;;8.86;100.00;94161.69;5004993;28;20046;-61
2023/04/19 07:03:30;;;;;;;16.67;10.00;;;;;;;9.17;100.00;94164.63;5003469;28;20054;-60
2023/04/19 07:05:57;;;;;;;14.88;9.07;;;;;;;8.83;100.00;94169.91;4997100;28;20049;-59
2023/04/19 07:08:24;;;;;;;16.65;9.75;;;;;;;9.03;100.00;94164.72;4999081;28;20050;-59
2023/04/19 07:11:04;;;;;;;15.77;9.93;;;;;;;9.13;100.00;94164.66;4998552;28;20314;-61
2023/04/19 07:13:31;;;;;;;15.75;9.18;;;;;;;9.38;100.00;94152.78;5000448;28;20050;-59
2023/04/19 07:15:57;;;;;;;16.23;10.40;;;;;;;9.09;100.00;94147.47;4998830;28;20058;-59
2023/04/19 07:18:24;;;;;;;16.15;10.18;;;;;;;9.02;100.00;94146.75;4995591;28;20537;-61
2023/04/19 07:20:51;;;;;;;15.90;9.80;;;;;;;8.95;100.00;94148.34;5000891;28;20046;-59
2023/04/19 07:23:18;;;;;;;18.25;10.07;;;;;;;8.77;100.00;94150.38;5001889;28;20042;-60
2023/04/19 07:25:45;;;;;;;14.27;9.23;;;;;;;9.30;100.00;94151.28;5000705;28;20038;-59
2023/04/19 07:28:12;;;;;;;15.07;8.90;;;;;;;9.51;100.00;94150.34;5001598;28;20052;-60
2023/04/19 07:30:38;;;;;;;16.08;9.15;;;;;;;9.13;100.00;94147.44;5004252;28;20103;-59
2023/04/19 07:33:07;;;;;;;19.40;9.70;;;;;;;9.14;100.00;94149.03;5005250;28;20067;-59
2023/04/19 07:35:34;;;;;;;16.10;9.25;;;;;;;9.20;100.00;94150.94;4999357;28;20616;-62
2023/04/19 07:38:01;;;;;;;17.15;10.10;;;;;;;8.67;100.00;94143.78;5002858;28;20053;-59
2023/04/19 07:40:28;;;;;;;15.33;9.33;;;;;;;9.22;100.00;94149.75;4997942;28;20467;-60
2023/04/19 07:42:55;;;;;;;13.77;8.98;;;;;;;9.04;100.00;94149.88;5001416;28;21579;-60
2023/04/19 07:45:22;;;;;;;15.77;9.20;;;;;;;8.59;100.00;94143.03;5006137;28;20038;-60
2023/04/19 07:47:49;;;;;;;18.33;9.85;;;;;;;8.47;100.00;94148.94;5000388;28;20064;-59
2023/04/19 07:50:16;;;;;;;17.13;9.27;;;;;;;8.68;100.00;94145.34;5003913;28;20091;-60
2023/04/19 07:52:43;;;;;;;15.00;9.40;;;;;;;8.24;100.00;94143.91;4998505;28;20131;-60
2023/04/19 07:55:10;;;;;;;17.25;9.75;;;;;;;8.39;100.00;94144.63;4999423;28;20061;-60
2023/04/19 07:57:36;;;;;;;14.88;9.57;;;;;;;8.63;100.00;94142.22;5001617;28;20059;-62
2023/04/19 08:00:04;;;;;;;16.42;9.55;;;;;;;8.70;100.00;94142.22;5001621;28;20075;-63
2023/04/19 08:02:30;;;;;;;14.93;9.13;;;;;;;8.91;100.00;94141.31;5003169;28;20038;-59
2023/04/19 08:04:57;;;;;;;16.63;10.13;;;;;;;8.36;100.00;94138.00;5001148;28;20492;-62
2023/04/19 08:07:25;;;;;;;17.92;10.85;;;;;;;8.12;100.00;94145.09;5006420;28;20042;-60
2023/04/19 08:09:51;;;;;;;17.83;10.63;;;;;;;7.80;100.00;94143.19;5004406;28;20050;-60
2023/04/19 08:12:18;;;;;;;19.05;11.35;;;;;;;7.79;100.00;94146.34;5019392;28;20049;-60
2023/04/19 08:15:01;;;;;;;22.10;12.60;;;;;;;7.57;100.00;94151.81;4999558;28;20072;-60
2023/04/19 08:17:45;;;;;;;21.13;11.63;;;;;;;7.44;100.00;94149.84;5000616;28;20042;-60
2023/04/19 08:20:13;;;;;;;20.50;11.70;;;;;;;7.52;100.00;94141.25;5006395;28;20046;-60
2023/04/19 08:22:40;;;;;;;22.67;12.32;;;;;;;7.51;100.00;94145.16;5001340;28;20534;-60
2023/04/19 08:25:07;;;;;;;21.85;12.20;;;;;;;7.60;100.00;94144.78;4999868;28;20053;-61
2023/04/19 08:27:34;;;;;;;20.10;11.25;;;;;;;7.71;100.00;94139.31;5000774;28;20038;-59
2023/04/19 08:30:02;;;;;;;20.57;12.00;;;;;;;7.95;100.00;94143.97;4999826;28;20132;-60
2023/04/19 08:32:29;;;;;;;21.85;11.38;;;;;;;8.23;100.00;94145.09;5002614;28;20046;-60
2023/04/19 08:34:56;;;;;;;18.75;10.52;;;;;;;8.60;100.00;94135.59;5017235;28;20048;-61
2023/04/19 08:37:23;;;;;;;18.45;10.82;;;;;;;8.97;100.00;94135.03;5004629;28;20407;-60
2023/04/19 08:39:50;;;;;;;20.05;11.98;;;;;;;8.88;100.00;94137.44;5003156;28;20056;-60
2023/04/19 08:42:17;;;;;;;19.93;11.03;;;;;;;9.30;100.00;94132.09;4999730;28;20655;-60
2023/04/19 08:44:51;;;;;;;19.58;10.55;;;;;;;9.51;100.00;94131.16;4999618;28;20182;-60
2023/04/19 08:47:21;;;;;;;19.20;11.45;;;;;;;9.75;100.00;94132.13;5000337;28;20042;-61
2023/04/19 08:50:04;;;;;;;17.88;10.70;;;;;;;9.61;100.00;94133.03;4998950;28;20040;-61
2023/04/19 08:52:50;;;;;;;17.38;10.75;;;;;;;9.23;100.00;94127.44;5000951;28;20042;-60
2023/04/19 08:55:27;;;;;;;16.67;10.40;;;;;;;9.30;100.00;94127.41;5000237;28;20048;-60
2023/04/19 08:57:55;;;;;;;16.88;10.10;;;;;;;9.40;100.00;94133.97;4998304;28;20039;-58
2023/04/19 09:00:22;;;;;;;17.02;10.95;;;;;;;9.50;100.00;94129.63;5000153;28;20539;-59
2023/04/19 09:02:51;;;;;;;18.55;10.52;;;;;;;9.30;100.00;94129.38;5004050;28;20057;-60
2023/04/19 09:05:18;;;;;;;18.40;11.38;;;;;;;8.60;100.00;94133.66;5001835;28;20843;-58
2023/04/19 09:07:46;;;;;;;20.10;10.97;;;;;;;8.35;100.00;94130.97;4986577;28;20049;-61
2023/04/19 09:10:15;;;;;;;18.02;10.60;;;;;;;8.84;100.00;94133.94;5001152;28;20119;-64
2023/04/19 09:12:42;;;;;;;17.35;11.07;;;;;;;8.97;100.00;94129.56;4997814;28;20050;-59
2023/04/19 09:15:09;;;;;;;18.95;12.20;;;;;;;8.72;100.00;94126.19;5001397;28;20068;-59
2023/04/19 09:17:37;;;;;;;22.10;13.02;;;;;;;8.99;100.00;94132.69;4999776;28;20390;-61
2023/04/19 09:20:05;;;;;;;23.33;14.00;;;;;;;8.60;100.00;94130.13;4999286;28;20153;-60
2023/04/19 09:22:32;;;;;;;18.15;10.57;;;;;;;8.76;100.00;94129.69;5000551;28;20418;-60
2023/04/19 09:24:59;;;;;;;22.20;12.18;;;;;;;8.91;100.00;94127.63;4995927;28;20056;-62
2023/04/19 09:27:35;;;;;;;17.50;10.50;;;;;;;8.46;100.00;94124.72;5002131;28;20050;-58
2023/04/19 09:30:03;;;;;;;19.48;11.73;;;;;;;7.95;100.00;94116.63;4996494;28;20034;-60
2023/04/19 09:32:45;;;;;;;21.70;13.87;;;;;;;7.54;100.00;94127.22;5001156;28;20058;-60
2023/04/19 09:35:12;;;;;;;19.92;10.77;;;;;;;8.04;100.00;94120.91;5001748;28;20496;-60
2023/04/19 09:37:40;;;;;;;19.63;11.13;;;;;;;8.10;100.00;94116.59;4998643;28;20081;-60
2023/04/19 09:40:27;;;;;;;20.25;11.20;;;;;;;8.33;100.00;94113.41;4999056;28;20047;-60
2023/04/19 09:42:54;;;;;;;20.08;11.45;;;;;;;8.89;100.00;94108.09;4999461;28;20099;-57
2023/04/19 09:45:45;;;;;;;17.73;10.70;;;;;;;9.28;100.00;94110.59;5000512;28;20054;-58
2023/04/19 09:48:12;;;;;;;17.55;9.95;;;;;;;9.50;100.00;94102.22;5000891;28;20052;-61
2023/04/19 09:50:54;;;;;;;19.05;10.90;;;;;;;9.56;100.00;94104.09;4996281;28;20046;-59
2023/04/19 09:53:34;;;;;;;20.70;11.35;;;;;;;9.71;100.00;94096.53;4997896;28;20529;-59
2023/04/19 09:56:01;;;;;;;22.92;11.43;;;;;;;10.13;100.00;94096.53;4992061;28;20058;-62
2023/04/19 09:58:30;;;;;;;17.73;10.87;;;;;;;10.48;100.00;94083.63;4990807;28;20050;-58
2023/04/19 10:01:17;;;;;;;19.23;11.50;;;;;;;9.33;100.00;94093.72;5000245;28;20369;-60
2023/04/19 10:03:48;;;;;;;18.02;11.50;;;;;;;8.44;100.00;94091.53;5000418;28;20514;-62
2023/04/19 10:06:17;;;;;;;17.35;11.18;;;;;;;8.67;100.00;94091.81;5003137;28;20064;-59
2023/04/19 10:08:49;;;;;;;17.13;9.82;;;;;;;9.09;100.00;94089.19;4997101;28;20100;-59
2023/04/19 10:11:20;;;;;;;16.57;9.47;;;;;;;9.25;100.00;94084.00;4994590;28;20426;-60
2023/04/19 10:13:51;;;;;;;17.25;10.00;;;;;;;9.65;100.00;94086.41;4999770;28;20409;-58
2023/04/19 10:16:19;;;;;;;18.67;10.20;;;;;;;9.15;100.00;94080.16;5002181;28;20053;-58
2023/04/19 10:18:49;;;;;;;19.17;10.13;;;;;;;9.91;100.00;94076.78;4996694;28;20050;-58
2023/04/19 10:21:18;;;;;;;14.70;9.07;;;;;;;10.62;100.00;94071.69;5000508;28;20040;-59
2023/04/19 10:23:46;;;;;;;16.40;9.57;;;;;;;11.18;100.00;94067.34;4999407;28;20084;-59
2023/04/19 10:26:13;;;;;;;15.23;9.50;;;;;;;10.75;100.00;94061.72;4998219;28;20038;-58
2023/04/19 10:28:41;;;;;;;16.48;10.00;;;;;;;10.75;100.00;94061.72;4993402;28;20049;-60
2023/04/19 10:31:14;;;;;;;16.27;9.82;;;;;;;11.38;100.00;94058.41;4999503;28;20046;-59
2023/04/19 10:33:41;;;;;;;14.80;9.10;;;;;;;11.52;100.00;94060.16;5003581;28;20042;-59
2023/04/19 10:36:10;;;;;;;13.70;9.00;;;;;;;11.40;100.00;94058.78;5019256;28;20038;-63
2023/04/19 10:38:46;;;;;;;15.45;9.75;;;;;;;10.55;100.00;94059.59;4999106;28;20075;-61
2023/04/19 10:41:14;;;;;;;14.77;9.55;;;;;;;10.98;100.00;94055.50;5002815;28;20085;-61
2023/04/19 10:44:10;;;;;;;16.45;9.73;;;;;;;11.22;100.00;94050.81;5000012;28;20058;-62
2023/04/19 10:46:41;;;;;;;15.18;9.40;;;;;;;11.72;100.00;94049.22;4996282;28;20046;-60
2023/04/19 10:49:08;;;;;;;15.13;9.07;;;;;;;11.68;100.00;94048.50;4998335;28;20043;-60
2023/04/19 10:51:42;;;;;;;14.13;9.10;;;;;;;11.63;100.00;94038.78;4998231;28;20338;-59
2023/04/19 10:54:26;;;;;;;15.70;9.43;;;;;;;11.23;100.00;94037.84;4999626;28;20046;-62
2023/04/19 10:57:01;;;;;;;13.25;8.50;;;;;;;11.99;100.00;94027.94;5003972;28;20037;-61
2023/04/19 10:59:30;;;;;;;13.60;8.73;;;;;;;11.69;98.17;94026.09;5005785;28;20049;-60
2023/04/19 11:01:59;;;;;;;13.50;9.03;;;;;;;11.81;99.82;94024.69;5003846;28;20064;-60
2023/04/19 11:04:29;;;;;;;13.55;8.43;;;;;;;11.35;100.00;94026.31;5003717;28;20059;-61
2023/04/19 11:07:03;;;;;;;14.25;9.43;;;;;;;11.42;100.00;94022.66;5000562;28;21404;-60
2023/04/19 11:09:37;;;;;;;13.02;8.43;;;;;;;11.87;100.00;94020.28;5003146;28;20156;-61
2023/04/19 11:12:09;;;;;;;13.38;8.70;;;;;;;12.15;98.81;94019.00;5001733;28;20068;-61
2023/04/19 11:14:43;;;;;;;13.77;8.53;;;;;;;12.24;95.68;94012.16;5004886;28;20042;-60
2023/04/19 11:17:26;;;;;;;12.15;7.95;;;;;;;12.38;94.13;94020.88;5003389;28;20050;-62
2023/04/19 11:20:11;;;;;;;12.40;8.10;;;;;;;12.68;91.37;94010.06;5015294;28;20394;-62
2023/04/19 11:22:40;;;;;;;14.30;8.73;;;;;;;12.55;92.09;94009.91;5003189;28;20061;-60
2023/04/19 11:25:21;;;;;;;13.85;8.73;;;;;;;12.44;94.26;94018.41;5001371;28;20038;-61
2023/04/19 11:27:51;;;;;;;14.33;9.57;;;;;;;11.95;99.63;94010.72;5002857;28;20127;-62